Houston, Texas
Traffic Map
Current Weather Conditions
Houston, Texas
Few Clouds
Few Clouds
52°
Feels Like: 52°
Wind Chill: 52° Ceiling: Unl
Heat Index: 52° Visibility: 10mi
Dew Point: 14° Wind: 14mph
Humidity: 22% Direction: 340° (NNW)
Pressure: 30.38in Gusts: 20mph
Raw Report DataKIAH 091553Z 34012G17KT 10SM FEW250 11/M10 A3038 RMK AO2 SLP287 T01111100
Traffic Incident Summary
Active as of:
Severity:
Category:
InformationThere was an issue retrieving the traffic information for this location. Please try a different location or try again shortly.
Advertisements
Track Severe Weather on mobile